sensor_id;sensor_type;location;lat;lon;timestamp;P1;durP1;ratioP1;P2;durP2;ratioP2
23155;SDS011;11746;50.876;4.246;2023-08-30T00:01:23;5.18;;;3.55;;
23155;SDS011;11746;50.876;4.246;2023-08-30T00:03:48;6.97;;;4.20;;
23155;SDS011;11746;50.876;4.246;2023-08-30T00:06:14;5.90;;;3.92;;
23155;SDS011;11746;50.876;4.246;2023-08-30T00:08:40;4.97;;;3.60;;
23155;SDS011;11746;50.876;4.246;2023-08-30T00:11:06;5.43;;;3.67;;
23155;SDS011;11746;50.876;4.246;2023-08-30T00:13:32;6.57;;;4.15;;
23155;SDS011;11746;50.876;4.246;2023-08-30T00:15:58;6.45;;;3.97;;
23155;SDS011;11746;50.876;4.246;2023-08-30T00:18:27;5.05;;;3.40;;
23155;SDS011;11746;50.876;4.246;2023-08-30T00:20:53;6.38;;;3.67;;
23155;SDS011;11746;50.876;4.246;2023-08-30T00:23:19;5.90;;;3.90;;
23155;SDS011;11746;50.876;4.246;2023-08-30T00:25:48;6.45;;;3.83;;
23155;SDS011;11746;50.876;4.246;2023-08-30T00:28:13;5.35;;;3.60;;
23155;SDS011;11746;50.876;4.246;2023-08-30T00:30:44;6.10;;;3.85;;
23155;SDS011;11746;50.876;4.246;2023-08-30T00:33:12;5.10;;;4.13;;
23155;SDS011;11746;50.876;4.246;2023-08-30T00:35:38;7.93;;;4.25;;
23155;SDS011;11746;50.876;4.246;2023-08-30T00:38:06;4.10;;;3.60;;
23155;SDS011;11746;50.876;4.246;2023-08-30T00:40:40;6.25;;;3.88;;
23155;SDS011;11746;50.876;4.246;2023-08-30T00:43:06;6.35;;;4.15;;
23155;SDS011;11746;50.876;4.246;2023-08-30T00:45:32;4.97;;;4.00;;
23155;SDS011;11746;50.876;4.246;2023-08-30T00:47:59;4.55;;;3.75;;
23155;SDS011;11746;50.876;4.246;2023-08-30T00:50:25;6.03;;;3.60;;
23155;SDS011;11746;50.876;4.246;2023-08-30T00:52:51;6.82;;;3.58;;
23155;SDS011;11746;50.876;4.246;2023-08-30T00:55:18;7.25;;;4.07;;
23155;SDS011;11746;50.876;4.246;2023-08-30T00:57:44;5.38;;;4.13;;
23155;SDS011;11746;50.876;4.246;2023-08-30T01:00:12;6.13;;;3.97;;
23155;SDS011;11746;50.876;4.246;2023-08-30T01:02:37;6.50;;;4.28;;
23155;SDS011;11746;50.876;4.246;2023-08-30T01:05:04;7.60;;;4.40;;
23155;SDS011;11746;50.876;4.246;2023-08-30T01:07:30;7.07;;;4.72;;
23155;SDS011;11746;50.876;4.246;2023-08-30T01:09:55;7.82;;;5.15;;
23155;SDS011;11746;50.876;4.246;2023-08-30T01:12:26;7.20;;;4.60;;
23155;SDS011;11746;50.876;4.246;2023-08-30T01:15:04;7.72;;;4.57;;
23155;SDS011;11746;50.876;4.246;2023-08-30T01:17:35;8.68;;;5.20;;
23155;SDS011;11746;50.876;4.246;2023-08-30T01:20:05;9.50;;;5.05;;
23155;SDS011;11746;50.876;4.246;2023-08-30T01:28:49;9.10;;;4.80;;
23155;SDS011;11746;50.876;4.246;2023-08-30T01:31:17;7.03;;;5.13;;
23155;SDS011;11746;50.876;4.246;2023-08-30T01:33:47;5.45;;;4.78;;
23155;SDS011;11746;50.876;4.246;2023-08-30T01:36:13;6.57;;;4.95;;
23155;SDS011;11746;50.876;4.246;2023-08-30T01:38:40;6.68;;;4.55;;
23155;SDS011;11746;50.876;4.246;2023-08-30T01:41:06;6.97;;;5.20;;
23155;SDS011;11746;50.876;4.246;2023-08-30T01:43:32;7.45;;;4.82;;
23155;SDS011;11746;50.876;4.246;2023-08-30T01:45:58;9.15;;;5.63;;
23155;SDS011;11746;50.876;4.246;2023-08-30T01:48:26;9.65;;;5.18;;
23155;SDS011;11746;50.876;4.246;2023-08-30T01:50:52;6.45;;;4.63;;
23155;SDS011;11746;50.876;4.246;2023-08-30T01:53:23;7.65;;;5.30;;
23155;SDS011;11746;50.876;4.246;2023-08-30T01:55:49;6.90;;;5.13;;
23155;SDS011;11746;50.876;4.246;2023-08-30T01:58:15;6.28;;;4.68;;
23155;SDS011;11746;50.876;4.246;2023-08-30T02:00:43;5.35;;;4.55;;
23155;SDS011;11746;50.876;4.246;2023-08-30T02:03:10;6.53;;;4.97;;
23155;SDS011;11746;50.876;4.246;2023-08-30T02:05:37;7.63;;;4.78;;
23155;SDS011;11746;50.876;4.246;2023-08-30T02:08:13;7.50;;;4.88;;
23155;SDS011;11746;50.876;4.246;2023-08-30T02:10:42;9.15;;;5.22;;
23155;SDS011;11746;50.876;4.246;2023-08-30T02:13:15;9.20;;;5.07;;
23155;SDS011;11746;50.876;4.246;2023-08-30T02:15:41;7.60;;;5.10;;
23155;SDS011;11746;50.876;4.246;2023-08-30T02:18:07;5.95;;;5.03;;
23155;SDS011;11746;50.876;4.246;2023-08-30T02:20:34;8.65;;;5.25;;
23155;SDS011;11746;50.876;4.246;2023-08-30T02:23:00;7.57;;;5.18;;
23155;SDS011;11746;50.876;4.246;2023-08-30T02:25:26;7.53;;;4.72;;
23155;SDS011;11746;50.876;4.246;2023-08-30T02:27:53;7.93;;;4.90;;
23155;SDS011;11746;50.876;4.246;2023-08-30T02:30:19;6.28;;;4.57;;
23155;SDS011;11746;50.876;4.246;2023-08-30T02:32:45;8.23;;;5.03;;
23155;SDS011;11746;50.876;4.246;2023-08-30T02:35:10;6.40;;;5.00;;
23155;SDS011;11746;50.876;4.246;2023-08-30T02:37:38;7.78;;;5.05;;
23155;SDS011;11746;50.876;4.246;2023-08-30T02:40:07;8.82;;;4.90;;
23155;SDS011;11746;50.876;4.246;2023-08-30T02:42:36;9.48;;;5.28;;
23155;SDS011;11746;50.876;4.246;2023-08-30T02:45:04;7.07;;;5.10;;
23155;SDS011;11746;50.876;4.246;2023-08-30T02:47:30;8.27;;;5.18;;
23155;SDS011;11746;50.876;4.246;2023-08-30T02:49:55;8.18;;;5.18;;
23155;SDS011;11746;50.876;4.246;2023-08-30T02:52:21;9.88;;;5.50;;
23155;SDS011;11746;50.876;4.246;2023-08-30T02:54:47;7.47;;;5.10;;
23155;SDS011;11746;50.876;4.246;2023-08-30T02:57:12;9.02;;;5.13;;
23155;SDS011;11746;50.876;4.246;2023-08-30T02:59:38;8.98;;;5.05;;
23155;SDS011;11746;50.876;4.246;2023-08-30T03:02:04;13.52;;;5.40;;
23155;SDS011;11746;50.876;4.246;2023-08-30T03:04:30;8.25;;;5.13;;
23155;SDS011;11746;50.876;4.246;2023-08-30T03:06:55;8.27;;;4.90;;
23155;SDS011;11746;50.876;4.246;2023-08-30T03:09:21;7.68;;;5.07;;
23155;SDS011;11746;50.876;4.246;2023-08-30T03:11:49;8.50;;;5.03;;
23155;SDS011;11746;50.876;4.246;2023-08-30T03:14:15;8.30;;;5.53;;
23155;SDS011;11746;50.876;4.246;2023-08-30T03:16:41;9.75;;;5.18;;
23155;SDS011;11746;50.876;4.246;2023-08-30T03:19:09;9.55;;;5.50;;
23155;SDS011;11746;50.876;4.246;2023-08-30T03:21:35;6.00;;;5.00;;
23155;SDS011;11746;50.876;4.246;2023-08-30T03:24:01;7.32;;;4.75;;
23155;SDS011;11746;50.876;4.246;2023-08-30T03:26:26;9.20;;;5.25;;
23155;SDS011;11746;50.876;4.246;2023-08-30T03:28:52;8.80;;;5.13;;
23155;SDS011;11746;50.876;4.246;2023-08-30T03:31:18;6.65;;;4.65;;
23155;SDS011;11746;50.876;4.246;2023-08-30T03:33:48;7.50;;;4.35;;
23155;SDS011;11746;50.876;4.246;2023-08-30T03:36:16;7.18;;;5.10;;
23155;SDS011;11746;50.876;4.246;2023-08-30T03:38:43;7.75;;;4.32;;
23155;SDS011;11746;50.876;4.246;2023-08-30T03:41:10;8.45;;;5.03;;
23155;SDS011;11746;50.876;4.246;2023-08-30T03:43:38;5.72;;;4.35;;
23155;SDS011;11746;50.876;4.246;2023-08-30T03:46:04;9.52;;;5.13;;
23155;SDS011;11746;50.876;4.246;2023-08-30T03:48:30;8.25;;;4.90;;
23155;SDS011;11746;50.876;4.246;2023-08-30T03:50:56;9.70;;;5.32;;
23155;SDS011;11746;50.876;4.246;2023-08-30T03:53:24;8.25;;;5.30;;
23155;SDS011;11746;50.876;4.246;2023-08-30T03:55:50;6.50;;;4.93;;
23155;SDS011;11746;50.876;4.246;2023-08-30T03:58:17;11.05;;;4.95;;
23155;SDS011;11746;50.876;4.246;2023-08-30T04:00:43;10.68;;;5.53;;
23155;SDS011;11746;50.876;4.246;2023-08-30T04:03:13;8.32;;;4.70;;
23155;SDS011;11746;50.876;4.246;2023-08-30T04:05:42;12.32;;;4.97;;
23155;SDS011;11746;50.876;4.246;2023-08-30T04:08:10;9.25;;;5.38;;
23155;SDS011;11746;50.876;4.246;2023-08-30T04:10:36;9.45;;;5.22;;
23155;SDS011;11746;50.876;4.246;2023-08-30T04:13:03;9.65;;;5.47;;
23155;SDS011;11746;50.876;4.246;2023-08-30T04:15:33;8.93;;;5.50;;
23155;SDS011;11746;50.876;4.246;2023-08-30T04:17:59;9.18;;;4.82;;
23155;SDS011;11746;50.876;4.246;2023-08-30T04:20:25;8.55;;;4.97;;
23155;SDS011;11746;50.876;4.246;2023-08-30T04:22:51;8.90;;;5.40;;
23155;SDS011;11746;50.876;4.246;2023-08-30T04:25:18;10.20;;;5.10;;
23155;SDS011;11746;50.876;4.246;2023-08-30T04:27:43;9.27;;;5.03;;
23155;SDS011;11746;50.876;4.246;2023-08-30T04:30:09;8.05;;;5.00;;
23155;SDS011;11746;50.876;4.246;2023-08-30T04:32:36;7.40;;;4.85;;
23155;SDS011;11746;50.876;4.246;2023-08-30T04:35:01;8.10;;;5.00;;
23155;SDS011;11746;50.876;4.246;2023-08-30T04:37:34;7.93;;;4.97;;
23155;SDS011;11746;50.876;4.246;2023-08-30T04:40:06;7.63;;;4.70;;
23155;SDS011;11746;50.876;4.246;2023-08-30T04:42:35;8.32;;;5.30;;
23155;SDS011;11746;50.876;4.246;2023-08-30T04:45:04;8.65;;;4.55;;
23155;SDS011;11746;50.876;4.246;2023-08-30T04:47:30;8.20;;;5.28;;
23155;SDS011;11746;50.876;4.246;2023-08-30T04:49:58;9.95;;;5.18;;
23155;SDS011;11746;50.876;4.246;2023-08-30T04:52:24;9.82;;;5.38;;
23155;SDS011;11746;50.876;4.246;2023-08-30T04:54:49;8.20;;;5.13;;
23155;SDS011;11746;50.876;4.246;2023-08-30T04:57:16;9.60;;;4.82;;
23155;SDS011;11746;50.876;4.246;2023-08-30T04:59:42;9.50;;;5.05;;
23155;SDS011;11746;50.876;4.246;2023-08-30T05:02:09;7.10;;;4.85;;
23155;SDS011;11746;50.876;4.246;2023-08-30T05:04:35;7.22;;;4.85;;
23155;SDS011;11746;50.876;4.246;2023-08-30T05:07:01;6.63;;;4.53;;
23155;SDS011;11746;50.876;4.246;2023-08-30T05:09:27;6.70;;;5.00;;
23155;SDS011;11746;50.876;4.246;2023-08-30T05:11:56;8.15;;;4.43;;
23155;SDS011;11746;50.876;4.246;2023-08-30T05:14:21;6.45;;;4.63;;
23155;SDS011;11746;50.876;4.246;2023-08-30T05:16:50;9.00;;;5.43;;
23155;SDS011;11746;50.876;4.246;2023-08-30T05:19:15;6.18;;;4.63;;
23155;SDS011;11746;50.876;4.246;2023-08-30T05:21:46;8.25;;;4.95;;
23155;SDS011;11746;50.876;4.246;2023-08-30T05:24:19;8.70;;;5.13;;
23155;SDS011;11746;50.876;4.246;2023-08-30T05:26:45;8.48;;;5.70;;
23155;SDS011;11746;50.876;4.246;2023-08-30T05:29:12;8.93;;;5.60;;
23155;SDS011;11746;50.876;4.246;2023-08-30T05:31:39;8.68;;;5.72;;
23155;SDS011;11746;50.876;4.246;2023-08-30T05:34:05;9.68;;;6.38;;
23155;SDS011;11746;50.876;4.246;2023-08-30T05:36:30;9.07;;;6.55;;
23155;SDS011;11746;50.876;4.246;2023-08-30T05:38:56;13.30;;;7.90;;
23155;SDS011;11746;50.876;4.246;2023-08-30T05:41:21;15.88;;;8.32;;
23155;SDS011;11746;50.876;4.246;2023-08-30T05:43:49;16.65;;;8.85;;
23155;SDS011;11746;50.876;4.246;2023-08-30T05:46:18;17.05;;;9.38;;
23155;SDS011;11746;50.876;4.246;2023-08-30T05:48:46;18.35;;;9.25;;
23155;SDS011;11746;50.876;4.246;2023-08-30T05:51:14;17.23;;;9.43;;
23155;SDS011;11746;50.876;4.246;2023-08-30T05:53:40;13.75;;;7.47;;
23155;SDS011;11746;50.876;4.246;2023-08-30T05:56:05;12.80;;;7.07;;
23155;SDS011;11746;50.876;4.246;2023-08-30T05:58:31;11.25;;;6.93;;
23155;SDS011;11746;50.876;4.246;2023-08-30T06:00:57;11.52;;;7.05;;
23155;SDS011;11746;50.876;4.246;2023-08-30T06:03:25;10.65;;;6.47;;
23155;SDS011;11746;50.876;4.246;2023-08-30T06:05:50;8.10;;;5.82;;
23155;SDS011;11746;50.876;4.246;2023-08-30T06:08:18;8.65;;;5.38;;
23155;SDS011;11746;50.876;4.246;2023-08-30T06:10:44;8.43;;;5.90;;
23155;SDS011;11746;50.876;4.246;2023-08-30T06:13:10;9.32;;;5.28;;
23155;SDS011;11746;50.876;4.246;2023-08-30T06:15:36;9.32;;;5.72;;
23155;SDS011;11746;50.876;4.246;2023-08-30T06:18:04;7.28;;;5.20;;
23155;SDS011;11746;50.876;4.246;2023-08-30T06:20:30;8.25;;;5.75;;
23155;SDS011;11746;50.876;4.246;2023-08-30T06:22:58;9.77;;;5.65;;
23155;SDS011;11746;50.876;4.246;2023-08-30T06:25:24;12.13;;;6.07;;
23155;SDS011;11746;50.876;4.246;2023-08-30T06:27:56;9.30;;;6.38;;
23155;SDS011;11746;50.876;4.246;2023-08-30T06:30:24;10.68;;;6.50;;
23155;SDS011;11746;50.876;4.246;2023-08-30T06:32:57;10.75;;;6.28;;
23155;SDS011;11746;50.876;4.246;2023-08-30T06:35:23;10.15;;;5.70;;
23155;SDS011;11746;50.876;4.246;2023-08-30T06:37:49;10.18;;;6.30;;
23155;SDS011;11746;50.876;4.246;2023-08-30T06:40:17;9.73;;;7.07;;
23155;SDS011;11746;50.876;4.246;2023-08-30T06:42:43;11.98;;;7.32;;
23155;SDS011;11746;50.876;4.246;2023-08-30T06:45:08;12.77;;;6.88;;
23155;SDS011;11746;50.876;4.246;2023-08-30T06:47:36;10.45;;;6.40;;
23155;SDS011;11746;50.876;4.246;2023-08-30T06:50:04;9.52;;;6.95;;
23155;SDS011;11746;50.876;4.246;2023-08-30T06:52:31;12.40;;;7.45;;
23155;SDS011;11746;50.876;4.246;2023-08-30T06:54:56;11.43;;;6.88;;
23155;SDS011;11746;50.876;4.246;2023-08-30T06:57:22;12.13;;;7.38;;
23155;SDS011;11746;50.876;4.246;2023-08-30T06:59:50;10.88;;;7.35;;
23155;SDS011;11746;50.876;4.246;2023-08-30T07:02:15;11.95;;;7.45;;
23155;SDS011;11746;50.876;4.246;2023-08-30T07:04:41;13.27;;;7.43;;
23155;SDS011;11746;50.876;4.246;2023-08-30T07:07:07;10.95;;;7.03;;
23155;SDS011;11746;50.876;4.246;2023-08-30T07:09:32;9.05;;;5.97;;
23155;SDS011;11746;50.876;4.246;2023-08-30T07:12:00;10.02;;;6.55;;
23155;SDS011;11746;50.876;4.246;2023-08-30T07:14:26;10.75;;;6.57;;
23155;SDS011;11746;50.876;4.246;2023-08-30T07:16:56;12.23;;;6.95;;
23155;SDS011;11746;50.876;4.246;2023-08-30T07:19:24;10.80;;;7.00;;
23155;SDS011;11746;50.876;4.246;2023-08-30T07:21:50;10.40;;;6.88;;
23155;SDS011;11746;50.876;4.246;2023-08-30T07:24:16;12.95;;;7.50;;
23155;SDS011;11746;50.876;4.246;2023-08-30T07:26:41;11.20;;;6.45;;
23155;SDS011;11746;50.876;4.246;2023-08-30T07:29:08;9.35;;;6.32;;
23155;SDS011;11746;50.876;4.246;2023-08-30T07:31:35;10.80;;;6.40;;
23155;SDS011;11746;50.876;4.246;2023-08-30T07:34:02;9.75;;;6.00;;
23155;SDS011;11746;50.876;4.246;2023-08-30T07:36:29;10.77;;;6.03;;
23155;SDS011;11746;50.876;4.246;2023-08-30T07:38:55;9.75;;;6.00;;
23155;SDS011;11746;50.876;4.246;2023-08-30T07:41:20;7.70;;;5.60;;
23155;SDS011;11746;50.876;4.246;2023-08-30T07:43:46;7.38;;;4.85;;
23155;SDS011;11746;50.876;4.246;2023-08-30T07:46:14;5.80;;;4.22;;
23155;SDS011;11746;50.876;4.246;2023-08-30T07:48:40;6.53;;;4.38;;
23155;SDS011;11746;50.876;4.246;2023-08-30T07:51:05;5.68;;;4.20;;
23155;SDS011;11746;50.876;4.246;2023-08-30T07:53:31;5.90;;;3.95;;
23155;SDS011;11746;50.876;4.246;2023-08-30T07:55:57;5.72;;;4.30;;
23155;SDS011;11746;50.876;4.246;2023-08-30T07:58:24;4.18;;;3.58;;
23155;SDS011;11746;50.876;4.246;2023-08-30T08:00:50;6.15;;;3.92;;
23155;SDS011;11746;50.876;4.246;2023-08-30T08:03:17;5.03;;;3.90;;
23155;SDS011;11746;50.876;4.246;2023-08-30T08:05:43;6.55;;;4.03;;
23155;SDS011;11746;50.876;4.246;2023-08-30T08:08:11;7.63;;;4.32;;
23155;SDS011;11746;50.876;4.246;2023-08-30T08:10:36;6.32;;;4.18;;
23155;SDS011;11746;50.876;4.246;2023-08-30T08:13:04;6.30;;;4.10;;
23155;SDS011;11746;50.876;4.246;2023-08-30T08:15:30;8.02;;;4.20;;
23155;SDS011;11746;50.876;4.246;2023-08-30T08:17:58;5.80;;;3.88;;
23155;SDS011;11746;50.876;4.246;2023-08-30T08:20:28;4.60;;;3.70;;
23155;SDS011;11746;50.876;4.246;2023-08-30T08:22:56;5.35;;;3.80;;
23155;SDS011;11746;50.876;4.246;2023-08-30T08:25:26;7.40;;;3.70;;
23155;SDS011;11746;50.876;4.246;2023-08-30T08:27:52;7.18;;;4.10;;
23155;SDS011;11746;50.876;4.246;2023-08-30T08:30:19;5.22;;;3.80;;
23155;SDS011;11746;50.876;4.246;2023-08-30T08:32:47;5.15;;;3.70;;
23155;SDS011;11746;50.876;4.246;2023-08-30T08:35:16;5.85;;;4.00;;
23155;SDS011;11746;50.876;4.246;2023-08-30T08:37:46;4.80;;;4.00;;
23155;SDS011;11746;50.876;4.246;2023-08-30T08:40:14;4.00;;;3.60;;
23155;SDS011;11746;50.876;4.246;2023-08-30T08:42:42;4.72;;;3.90;;
23155;SDS011;11746;50.876;4.246;2023-08-30T08:45:10;5.03;;;4.30;;
23155;SDS011;11746;50.876;4.246;2023-08-30T08:47:37;4.85;;;4.15;;
23155;SDS011;11746;50.876;4.246;2023-08-30T08:50:03;6.43;;;4.63;;
23155;SDS011;11746;50.876;4.246;2023-08-30T08:52:32;6.32;;;5.10;;
23155;SDS011;11746;50.876;4.246;2023-08-30T08:54:58;6.22;;;4.88;;
23155;SDS011;11746;50.876;4.246;2023-08-30T08:57:28;5.18;;;4.63;;
23155;SDS011;11746;50.876;4.246;2023-08-30T08:59:56;5.25;;;4.70;;
23155;SDS011;11746;50.876;4.246;2023-08-30T09:02:22;5.82;;;4.50;;
23155;SDS011;11746;50.876;4.246;2023-08-30T09:04:48;6.78;;;5.50;;
23155;SDS011;11746;50.876;4.246;2023-08-30T09:07:14;6.93;;;5.60;;
23155;SDS011;11746;50.876;4.246;2023-08-30T09:09:40;8.07;;;5.80;;
23155;SDS011;11746;50.876;4.246;2023-08-30T09:12:06;7.32;;;5.65;;
23155;SDS011;11746;50.876;4.246;2023-08-30T09:14:31;6.70;;;5.85;;
23155;SDS011;11746;50.876;4.246;2023-08-30T09:17:01;7.20;;;5.80;;
23155;SDS011;11746;50.876;4.246;2023-08-30T09:19:27;8.45;;;5.97;;
23155;SDS011;11746;50.876;4.246;2023-08-30T09:21:54;6.68;;;5.68;;
23155;SDS011;11746;50.876;4.246;2023-08-30T09:27:11;8.90;;;5.97;;
23155;SDS011;11746;50.876;4.246;2023-08-30T09:29:39;7.22;;;6.20;;
23155;SDS011;11746;50.876;4.246;2023-08-30T09:32:08;7.68;;;5.95;;
23155;SDS011;11746;50.876;4.246;2023-08-30T09:34:34;9.00;;;6.53;;
23155;SDS011;11746;50.876;4.246;2023-08-30T09:37:02;7.90;;;6.15;;
23155;SDS011;11746;50.876;4.246;2023-08-30T09:39:27;14.10;;;6.68;;
23155;SDS011;11746;50.876;4.246;2023-08-30T09:41:53;8.98;;;6.32;;
23155;SDS011;11746;50.876;4.246;2023-08-30T09:44:20;7.68;;;5.90;;
23155;SDS011;11746;50.876;4.246;2023-08-30T09:46:50;7.20;;;6.13;;
23155;SDS011;11746;50.876;4.246;2023-08-30T09:49:20;7.80;;;5.78;;
23155;SDS011;11746;50.876;4.246;2023-08-30T09:51:52;7.55;;;6.38;;
23155;SDS011;11746;50.876;4.246;2023-08-30T09:54:19;7.68;;;6.72;;
23155;SDS011;11746;50.876;4.246;2023-08-30T09:56:46;7.95;;;6.50;;
23155;SDS011;11746;50.876;4.246;2023-08-30T09:59:14;8.65;;;6.45;;
23155;SDS011;11746;50.876;4.246;2023-08-30T10:01:42;7.78;;;6.40;;
23155;SDS011;11746;50.876;4.246;2023-08-30T10:04:08;9.65;;;6.78;;
23155;SDS011;11746;50.876;4.246;2023-08-30T10:06:35;9.13;;;6.47;;
23155;SDS011;11746;50.876;4.246;2023-08-30T10:09:05;8.65;;;6.85;;
23155;SDS011;11746;50.876;4.246;2023-08-30T10:11:37;10.75;;;7.47;;
23155;SDS011;11746;50.876;4.246;2023-08-30T10:14:04;10.05;;;7.00;;
23155;SDS011;11746;50.876;4.246;2023-08-30T10:17:02;10.13;;;7.47;;
23155;SDS011;11746;50.876;4.246;2023-08-30T10:19:23;8.25;;;7.05;;
23155;SDS011;11746;50.876;4.246;2023-08-30T10:21:56;9.45;;;7.53;;
23155;SDS011;11746;50.876;4.246;2023-08-30T10:24:29;9.13;;;7.22;;
23155;SDS011;11746;50.876;4.246;2023-08-30T10:27:03;8.85;;;6.63;;
23155;SDS011;11746;50.876;4.246;2023-08-30T10:29:32;8.27;;;7.15;;
23155;SDS011;11746;50.876;4.246;2023-08-30T10:32:05;8.43;;;6.40;;
23155;SDS011;11746;50.876;4.246;2023-08-30T10:34:31;8.85;;;6.32;;
23155;SDS011;11746;50.876;4.246;2023-08-30T10:37:05;8.52;;;6.60;;
23155;SDS011;11746;50.876;4.246;2023-08-30T10:39:33;8.30;;;6.70;;
23155;SDS011;11746;50.876;4.246;2023-08-30T10:42:09;8.00;;;6.50;;
23155;SDS011;11746;50.876;4.246;2023-08-30T10:44:58;8.73;;;5.97;;
23155;SDS011;11746;50.876;4.246;2023-08-30T10:47:24;8.38;;;6.20;;
23155;SDS011;11746;50.876;4.246;2023-08-30T10:49:54;8.25;;;6.18;;
23155;SDS011;11746;50.876;4.246;2023-08-30T10:52:20;9.13;;;5.55;;
23155;SDS011;11746;50.876;4.246;2023-08-30T10:54:49;13.52;;;6.65;;
23155;SDS011;11746;50.876;4.246;2023-08-30T10:57:17;8.63;;;5.07;;
23155;SDS011;11746;50.876;4.246;2023-08-30T11:00:05;8.07;;;5.68;;
23155;SDS011;11746;50.876;4.246;2023-08-30T11:02:43;8.57;;;5.20;;
23155;SDS011;11746;50.876;4.246;2023-08-30T11:05:17;7.88;;;5.05;;
23155;SDS011;11746;50.876;4.246;2023-08-30T11:07:44;9.02;;;5.60;;
23155;SDS011;11746;50.876;4.246;2023-08-30T11:10:10;6.72;;;3.97;;
23155;SDS011;11746;50.876;4.246;2023-08-30T11:12:36;5.25;;;3.25;;
23155;SDS011;11746;50.876;4.246;2023-08-30T11:15:02;6.20;;;2.13;;
23155;SDS011;11746;50.876;4.246;2023-08-30T11:17:31;9.15;;;2.25;;
23155;SDS011;11746;50.876;4.246;2023-08-30T11:19:57;6.40;;;2.40;;
23155;SDS011;11746;50.876;4.246;2023-08-30T11:22:23;5.68;;;2.22;;
23155;SDS011;11746;50.876;4.246;2023-08-30T11:24:50;5.78;;;2.10;;
23155;SDS011;11746;50.876;4.246;2023-08-30T11:27:17;6.45;;;1.88;;
23155;SDS011;11746;50.876;4.246;2023-08-30T11:29:43;7.93;;;2.35;;
23155;SDS011;11746;50.876;4.246;2023-08-30T11:32:08;9.13;;;2.45;;
23155;SDS011;11746;50.876;4.246;2023-08-30T11:34:34;6.25;;;2.05;;
23155;SDS011;11746;50.876;4.246;2023-08-30T11:37:00;3.72;;;1.63;;
23155;SDS011;11746;50.876;4.246;2023-08-30T11:39:27;11.20;;;2.22;;
23155;SDS011;11746;50.876;4.246;2023-08-30T11:41:54;4.35;;;1.83;;
23155;SDS011;11746;50.876;4.246;2023-08-30T11:44:19;4.18;;;1.40;;
23155;SDS011;11746;50.876;4.246;2023-08-30T11:46:59;6.88;;;2.25;;
23155;SDS011;11746;50.876;4.246;2023-08-30T11:51:56;6.10;;;1.75;;
23155;SDS011;11746;50.876;4.246;2023-08-30T11:54:24;6.65;;;1.92;;
23155;SDS011;11746;50.876;4.246;2023-08-30T11:56:50;7.05;;;1.73;;
23155;SDS011;11746;50.876;4.246;2023-08-30T11:59:22;6.22;;;1.55;;
23155;SDS011;11746;50.876;4.246;2023-08-30T12:01:48;6.55;;;1.77;;
23155;SDS011;11746;50.876;4.246;2023-08-30T12:04:14;5.43;;;1.52;;
23155;SDS011;11746;50.876;4.246;2023-08-30T12:06:44;6.57;;;1.65;;
23155;SDS011;11746;50.876;4.246;2023-08-30T12:09:19;6.95;;;1.75;;
23155;SDS011;11746;50.876;4.246;2023-08-30T12:11:51;7.18;;;1.52;;
23155;SDS011;11746;50.876;4.246;2023-08-30T12:14:18;6.13;;;1.98;;
23155;SDS011;11746;50.876;4.246;2023-08-30T12:16:46;6.93;;;1.65;;
23155;SDS011;11746;50.876;4.246;2023-08-30T12:19:12;5.32;;;1.63;;
23155;SDS011;11746;50.876;4.246;2023-08-30T12:21:43;6.75;;;1.70;;
23155;SDS011;11746;50.876;4.246;2023-08-30T12:24:12;5.78;;;1.23;;
23155;SDS011;11746;50.876;4.246;2023-08-30T12:26:37;5.65;;;1.73;;
23155;SDS011;11746;50.876;4.246;2023-08-30T12:29:03;6.82;;;1.52;;
23155;SDS011;11746;50.876;4.246;2023-08-30T12:31:31;8.45;;;1.50;;
23155;SDS011;11746;50.876;4.246;2023-08-30T12:33:57;7.22;;;1.45;;
23155;SDS011;11746;50.876;4.246;2023-08-30T12:36:22;5.78;;;1.42;;
23155;SDS011;11746;50.876;4.246;2023-08-30T12:38:48;7.90;;;1.52;;
23155;SDS011;11746;50.876;4.246;2023-08-30T12:41:14;9.10;;;1.50;;
23155;SDS011;11746;50.876;4.246;2023-08-30T12:43:40;6.55;;;1.65;;
23155;SDS011;11746;50.876;4.246;2023-08-30T12:46:05;6.50;;;1.60;;
23155;SDS011;11746;50.876;4.246;2023-08-30T12:48:33;9.98;;;1.80;;
23155;SDS011;11746;50.876;4.246;2023-08-30T12:51:01;6.57;;;1.55;;
23155;SDS011;11746;50.876;4.246;2023-08-30T12:53:29;4.18;;;1.40;;
23155;SDS011;11746;50.876;4.246;2023-08-30T12:55:55;5.20;;;1.58;;
23155;SDS011;11746;50.876;4.246;2023-08-30T12:58:20;3.92;;;1.15;;
23155;SDS011;11746;50.876;4.246;2023-08-30T13:00:46;4.68;;;1.40;;
23155;SDS011;11746;50.876;4.246;2023-08-30T13:03:11;9.25;;;1.52;;
23155;SDS011;11746;50.876;4.246;2023-08-30T13:05:39;8.35;;;1.10;;
23155;SDS011;11746;50.876;4.246;2023-08-30T13:08:05;4.97;;;1.17;;
23155;SDS011;11746;50.876;4.246;2023-08-30T13:10:31;4.05;;;1.35;;
23155;SDS011;11746;50.876;4.246;2023-08-30T13:13:02;3.85;;;1.10;;
23155;SDS011;11746;50.876;4.246;2023-08-30T13:15:28;4.90;;;0.93;;
23155;SDS011;11746;50.876;4.246;2023-08-30T13:17:56;3.00;;;0.90;;
23155;SDS011;11746;50.876;4.246;2023-08-30T13:20:22;5.40;;;1.23;;
23155;SDS011;11746;50.876;4.246;2023-08-30T13:22:48;2.65;;;0.77;;
23155;SDS011;11746;50.876;4.246;2023-08-30T13:25:16;4.47;;;1.05;;
23155;SDS011;11746;50.876;4.246;2023-08-30T13:27:42;5.55;;;1.17;;
23155;SDS011;11746;50.876;4.246;2023-08-30T13:30:07;3.20;;;0.93;;
23155;SDS011;11746;50.876;4.246;2023-08-30T13:32:33;3.28;;;1.00;;
23155;SDS011;11746;50.876;4.246;2023-08-30T13:35:00;5.88;;;1.00;;
23155;SDS011;11746;50.876;4.246;2023-08-30T13:37:25;6.10;;;1.15;;
23155;SDS011;11746;50.876;4.246;2023-08-30T13:39:54;5.28;;;1.77;;
23155;SDS011;11746;50.876;4.246;2023-08-30T13:42:20;3.67;;;1.20;;
23155;SDS011;11746;50.876;4.246;2023-08-30T13:44:46;5.60;;;1.23;;
23155;SDS011;11746;50.876;4.246;2023-08-30T13:47:15;3.30;;;1.15;;
23155;SDS011;11746;50.876;4.246;2023-08-30T13:49:41;2.58;;;0.80;;
23155;SDS011;11746;50.876;4.246;2023-08-30T13:52:07;3.58;;;1.17;;
23155;SDS011;11746;50.876;4.246;2023-08-30T13:54:32;3.53;;;0.93;;
23155;SDS011;11746;50.876;4.246;2023-08-30T13:56:58;3.65;;;1.05;;
23155;SDS011;11746;50.876;4.246;2023-08-30T13:59:24;4.53;;;1.23;;
23155;SDS011;11746;50.876;4.246;2023-08-30T14:01:49;3.78;;;1.27;;
23155;SDS011;11746;50.876;4.246;2023-08-30T14:04:17;3.75;;;1.15;;
23155;SDS011;11746;50.876;4.246;2023-08-30T14:06:43;4.97;;;1.10;;
23155;SDS011;11746;50.876;4.246;2023-08-30T14:09:10;6.70;;;1.08;;
23155;SDS011;11746;50.876;4.246;2023-08-30T14:11:36;4.55;;;0.90;;
23155;SDS011;11746;50.876;4.246;2023-08-30T14:14:05;7.43;;;1.40;;
23155;SDS011;11746;50.876;4.246;2023-08-30T14:16:33;13.32;;;1.73;;
23155;SDS011;11746;50.876;4.246;2023-08-30T14:18:59;5.53;;;1.23;;
23155;SDS011;11746;50.876;4.246;2023-08-30T14:21:25;3.90;;;1.05;;
23155;SDS011;11746;50.876;4.246;2023-08-30T14:23:52;3.78;;;1.02;;
23155;SDS011;11746;50.876;4.246;2023-08-30T14:26:18;2.67;;;0.70;;
23155;SDS011;11746;50.876;4.246;2023-08-30T14:28:48;4.90;;;0.95;;
23155;SDS011;11746;50.876;4.246;2023-08-30T14:31:18;3.33;;;0.90;;
23155;SDS011;11746;50.876;4.246;2023-08-30T14:33:44;4.50;;;0.80;;
23155;SDS011;11746;50.876;4.246;2023-08-30T14:36:10;4.13;;;0.70;;
23155;SDS011;11746;50.876;4.246;2023-08-30T14:38:36;1.45;;;0.70;;
23155;SDS011;11746;50.876;4.246;2023-08-30T14:41:05;2.80;;;1.15;;
23155;SDS011;11746;50.876;4.246;2023-08-30T14:43:32;4.38;;;0.93;;
23155;SDS011;11746;50.876;4.246;2023-08-30T14:46:04;3.67;;;1.00;;
23155;SDS011;11746;50.876;4.246;2023-08-30T14:48:31;6.57;;;0.95;;
23155;SDS011;11746;50.876;4.246;2023-08-30T14:50:57;3.67;;;0.80;;
23155;SDS011;11746;50.876;4.246;2023-08-30T14:53:23;4.60;;;1.00;;
23155;SDS011;11746;50.876;4.246;2023-08-30T14:55:49;5.10;;;1.00;;
23155;SDS011;11746;50.876;4.246;2023-08-30T14:58:15;3.88;;;0.80;;